Time;durP1;ratioP1;P1;durP2;ratioP2;P2;SDS_P1;SDS_P2;PMS_P1;PMS_P2;Temp;Humidity;BMP_temperature;BMP_pressure;BME280_temperature;BME280_humidity;BME280_pressure;Samples;Min_cycle;Max_cycle;Signal;HPM_P1;HPM_P2
2023/12/11 00:00:21;;;;;;;13.60;12.80;;;;;;;;;;5072376;28;20052;-62
2023/12/11 00:02:47;;;;;;;12.10;11.50;;;;;;;;;;5072651;28;20017;-65
2023/12/11 00:05:12;;;;;;;12.43;11.82;;;;;;;;;;5071753;28;20453;-62
2023/12/11 00:07:37;;;;;;;11.65;11.15;;;;;;;;;;5073999;28;20020;-62
2023/12/11 00:10:03;;;;;;;12.55;11.95;;;;;;;;;;5071894;28;20025;-63
2023/12/11 00:12:28;;;;;;;12.00;11.43;;;;;;;;;;5071876;28;20028;-62
2023/12/11 00:14:53;;;;;;;12.38;11.77;;;;;;;;;;5071787;28;20112;-63
2023/12/11 00:17:19;;;;;;;12.00;11.40;;;;;;;;;;5067793;28;20035;-61
2023/12/11 00:19:44;;;;;;;11.73;11.20;;;;;;;;;;5080242;28;20036;-63
2023/12/11 00:22:11;;;;;;;12.90;12.20;;;;;;;;;;5072099;28;20139;-63
2023/12/11 00:24:36;;;;;;;12.52;11.93;;;;;;;;;;5070275;28;20103;-62
2023/12/11 00:27:01;;;;;;;11.93;11.32;;;;;;;;;;5069270;28;20479;-63
2023/12/11 00:29:27;;;;;;;13.07;12.38;;;;;;;;;;5071044;28;20028;-63
2023/12/11 00:31:52;;;;;;;12.57;11.98;;;;;;;;;;5070166;28;20469;-63
2023/12/11 00:34:18;;;;;;;12.80;12.20;;;;;;;;;;5071849;28;20507;-62
2023/12/11 00:36:44;;;;;;;12.38;11.77;;;;;;;;;;5075019;28;20475;-63
2023/12/11 00:39:10;;;;;;;12.18;11.57;;;;;;;;;;5079275;28;20052;-62
2023/12/11 00:41:35;;;;;;;12.60;12.00;;;;;;;;;;5069780;28;20031;-63
2023/12/11 00:44:01;;;;;;;12.00;11.40;;;;;;;;;;5079356;28;20133;-62
2023/12/11 00:46:26;;;;;;;12.35;11.75;;;;;;;;;;5083567;28;20021;-62
2023/12/11 00:48:51;;;;;;;12.48;11.88;;;;;;;;;;5074444;28;20016;-62
2023/12/11 00:51:17;;;;;;;13.00;12.30;;;;;;;;;;5072335;28;20024;-62
2023/12/11 00:53:43;;;;;;;12.88;12.25;;;;;;;;;;5072801;28;20503;-62
2023/12/11 00:56:09;;;;;;;13.00;12.30;;;;;;;;;;5074888;28;20024;-63
2023/12/11 00:58:34;;;;;;;12.50;11.90;;;;;;;;;;5070080;28;20028;-63
2023/12/11 01:00:59;;;;;;;12.95;12.27;;;;;;;;;;5073040;28;20160;-63
2023/12/11 01:03:25;;;;;;;12.32;11.73;;;;;;;;;;5074970;28;20020;-62
2023/12/11 01:05:50;;;;;;;13.43;12.73;;;;;;;;;;5063848;28;20036;-62
2023/12/11 01:08:15;;;;;;;12.38;11.77;;;;;;;;;;5072902;28;20024;-62
2023/12/11 01:10:40;;;;;;;13.13;12.43;;;;;;;;;;5079027;28;20024;-62
2023/12/11 01:13:06;;;;;;;12.45;11.85;;;;;;;;;;5069438;28;20551;-63
2023/12/11 01:15:31;;;;;;;12.20;11.60;;;;;;;;;;5068999;28;20466;-63
2023/12/11 01:17:56;;;;;;;11.93;11.32;;;;;;;;;;5074165;28;20117;-62
2023/12/11 01:20:22;;;;;;;12.90;12.20;;;;;;;;;;5070369;28;20119;-62
2023/12/11 01:22:47;;;;;;;12.10;11.50;;;;;;;;;;5070183;28;20104;-62
2023/12/11 01:25:12;;;;;;;12.20;11.60;;;;;;;;;;5071950;28;20048;-62
2023/12/11 01:27:38;;;;;;;12.50;11.90;;;;;;;;;;5073563;28;20103;-61
2023/12/11 01:30:03;;;;;;;12.05;11.45;;;;;;;;;;5072293;28;20021;-62
2023/12/11 01:32:29;;;;;;;12.38;11.77;;;;;;;;;;5069332;28;20028;-63
2023/12/11 01:34:54;;;;;;;11.30;10.80;;;;;;;;;;5079786;28;20024;-62
2023/12/11 01:37:19;;;;;;;11.48;10.98;;;;;;;;;;5072646;28;20028;-62
2023/12/11 01:39:45;;;;;;;12.80;12.10;;;;;;;;;;5072212;28;20028;-62
2023/12/11 01:42:10;;;;;;;12.23;11.63;;;;;;;;;;5074116;28;20028;-61
2023/12/11 01:44:36;;;;;;;11.90;11.30;;;;;;;;;;5075494;28;20670;-61
2023/12/11 01:47:01;;;;;;;12.38;11.77;;;;;;;;;;5078313;28;20036;-62
2023/12/11 01:49:26;;;;;;;11.60;11.10;;;;;;;;;;5074918;28;20099;-63
2023/12/11 01:51:52;;;;;;;12.93;12.23;;;;;;;;;;5079223;28;20044;-63
2023/12/11 01:54:19;;;;;;;12.13;11.52;;;;;;;;;;5078409;28;20468;-63
2023/12/11 01:56:45;;;;;;;12.40;11.80;;;;;;;;;;5072756;28;20025;-63
2023/12/11 01:59:11;;;;;;;12.23;11.63;;;;;;;;;;5079866;28;20028;-63
2023/12/11 02:01:37;;;;;;;12.00;11.40;;;;;;;;;;5069007;28;20035;-62
2023/12/11 02:04:03;;;;;;;11.50;11.00;;;;;;;;;;5080327;28;20012;-62
2023/12/11 02:06:28;;;;;;;12.00;11.40;;;;;;;;;;5079132;28;20028;-61
2023/12/11 02:08:53;;;;;;;12.20;11.60;;;;;;;;;;5077108;28;20084;-62
2023/12/11 02:11:20;;;;;;;12.45;11.82;;;;;;;;;;5076927;28;20458;-62
2023/12/11 02:13:45;;;;;;;11.93;11.32;;;;;;;;;;5070593;28;20036;-62
2023/12/11 02:16:15;;;;;;;12.80;12.10;;;;;;;;;;5071876;28;20195;-63
2023/12/11 02:18:41;;;;;;;12.25;11.65;;;;;;;;;;5082437;28;20103;-63
2023/12/11 02:21:07;;;;;;;11.68;11.07;;;;;;;;;;5071371;28;20551;-62
2023/12/11 02:23:35;;;;;;;12.25;11.65;;;;;;;;;;5073702;28;20024;-62
2023/12/11 02:26:19;;;;;;;11.50;11.00;;;;;;;;;;5077171;28;20020;-64
2023/12/11 02:28:45;;;;;;;13.57;12.77;;;;;;;;;;5071403;28;20056;-63
2023/12/11 02:31:10;;;;;;;11.73;11.13;;;;;;;;;;5079198;28;20029;-62
2023/12/11 02:33:36;;;;;;;11.45;10.93;;;;;;;;;;5078325;28;20542;-62
2023/12/11 02:36:01;;;;;;;11.70;11.10;;;;;;;;;;5075924;28;20099;-61
2023/12/11 02:38:27;;;;;;;11.45;10.95;;;;;;;;;;5073979;28;20383;-62
2023/12/11 02:40:52;;;;;;;11.30;10.80;;;;;;;;;;5074780;28;20422;-62
2023/12/11 02:43:17;;;;;;;12.38;11.77;;;;;;;;;;5072134;28;20479;-61
2023/12/11 02:45:43;;;;;;;11.82;11.23;;;;;;;;;;5075821;28;20047;-62
2023/12/11 02:48:08;;;;;;;12.07;11.48;;;;;;;;;;5075200;28;20100;-62
2023/12/11 02:50:34;;;;;;;12.30;11.70;;;;;;;;;;5078413;28;20030;-62
2023/12/11 02:52:59;;;;;;;12.85;12.15;;;;;;;;;;5072010;28;20017;-61
2023/12/11 02:55:25;;;;;;;12.00;11.40;;;;;;;;;;5079006;28;20032;-62
2023/12/11 02:58:00;;;;;;;12.55;11.95;;;;;;;;;;5075184;28;20020;-61
2023/12/11 03:00:26;;;;;;;12.05;11.45;;;;;;;;;;5069127;28;20032;-62
2023/12/11 03:02:51;;;;;;;12.50;11.90;;;;;;;;;;5074757;28;20047;-62
2023/12/11 03:05:16;;;;;;;12.25;11.65;;;;;;;;;;5077690;28;20027;-63
2023/12/11 03:07:42;;;;;;;12.20;11.60;;;;;;;;;;5070041;28;20025;-63
2023/12/11 03:10:07;;;;;;;11.80;11.20;;;;;;;;;;5078655;28;20368;-63
2023/12/11 03:12:33;;;;;;;12.07;11.48;;;;;;;;;;5071727;28;20047;-63
2023/12/11 03:14:58;;;;;;;12.05;11.45;;;;;;;;;;5073247;28;20025;-62
2023/12/11 03:17:23;;;;;;;11.90;11.30;;;;;;;;;;5071797;28;20870;-63
2023/12/11 03:19:49;;;;;;;13.07;12.38;;;;;;;;;;5074933;28;20123;-62
2023/12/11 03:22:14;;;;;;;12.32;11.73;;;;;;;;;;5072271;28;20033;-63
2023/12/11 03:24:39;;;;;;;12.10;11.50;;;;;;;;;;5073692;28;20096;-63
2023/12/11 03:27:05;;;;;;;11.98;11.38;;;;;;;;;;5073484;28;20056;-63
2023/12/11 03:29:30;;;;;;;12.32;11.73;;;;;;;;;;5079429;28;20081;-63
2023/12/11 03:31:55;;;;;;;12.20;11.60;;;;;;;;;;5073421;28;20353;-63
2023/12/11 03:34:21;;;;;;;12.02;11.43;;;;;;;;;;5069565;28;20028;-62
2023/12/11 03:36:46;;;;;;;11.85;11.30;;;;;;;;;;5068209;28;20038;-62
2023/12/11 03:39:11;;;;;;;11.40;10.90;;;;;;;;;;5075430;28;20028;-62
2023/12/11 03:41:38;;;;;;;12.73;12.07;;;;;;;;;;5074313;28;20029;-62
2023/12/11 03:44:03;;;;;;;12.07;11.48;;;;;;;;;;5075350;28;20094;-63
2023/12/11 03:46:28;;;;;;;12.00;11.40;;;;;;;;;;5069172;28;20025;-62
2023/12/11 03:48:54;;;;;;;12.50;11.90;;;;;;;;;;5071943;28;20569;-62
2023/12/11 03:51:19;;;;;;;12.13;11.52;;;;;;;;;;5073184;28;20085;-63
2023/12/11 03:53:45;;;;;;;12.00;11.40;;;;;;;;;;5076432;28;20084;-62
2023/12/11 03:56:10;;;;;;;12.00;11.40;;;;;;;;;;5072217;28;20159;-63
2023/12/11 03:58:35;;;;;;;12.25;11.65;;;;;;;;;;5078179;28;20025;-62
2023/12/11 04:01:01;;;;;;;12.40;11.80;;;;;;;;;;5075288;28;20025;-62
2023/12/11 04:03:27;;;;;;;12.05;11.45;;;;;;;;;;5071231;28;20031;-63
2023/12/11 04:05:52;;;;;;;12.25;11.65;;;;;;;;;;5071018;28;20028;-63
2023/12/11 04:08:17;;;;;;;11.57;11.07;;;;;;;;;;5069598;28;20548;-63
2023/12/11 04:10:42;;;;;;;12.13;11.52;;;;;;;;;;5083749;28;20020;-62
2023/12/11 04:13:08;;;;;;;12.13;11.52;;;;;;;;;;5071290;28;20035;-62
2023/12/11 04:15:33;;;;;;;11.98;11.38;;;;;;;;;;5072549;28;20051;-62
2023/12/11 04:17:59;;;;;;;12.43;11.82;;;;;;;;;;5078067;28;20032;-62
2023/12/11 04:20:24;;;;;;;12.85;12.15;;;;;;;;;;5077709;28;20161;-63
2023/12/11 04:22:49;;;;;;;11.75;11.25;;;;;;;;;;5073710;28;20028;-62
2023/12/11 04:25:15;;;;;;;12.30;11.70;;;;;;;;;;5072654;28;20364;-62
2023/12/11 04:27:40;;;;;;;12.57;11.90;;;;;;;;;;5082704;28;20468;-62
2023/12/11 04:30:05;;;;;;;13.65;12.88;;;;;;;;;;5073238;28;20040;-63
2023/12/11 04:32:31;;;;;;;11.60;11.10;;;;;;;;;;5074412;28;20020;-63
2023/12/11 04:34:56;;;;;;;12.15;11.55;;;;;;;;;;5079345;28;20107;-64
2023/12/11 04:37:21;;;;;;;13.23;12.52;;;;;;;;;;5071975;28;20024;-63
2023/12/11 04:39:47;;;;;;;12.05;11.45;;;;;;;;;;5071655;28;20050;-63
2023/12/11 04:42:12;;;;;;;12.43;11.82;;;;;;;;;;5076315;28;20036;-63
2023/12/11 04:44:37;;;;;;;12.50;11.88;;;;;;;;;;5076117;28;20008;-61
2023/12/11 04:47:03;;;;;;;12.23;11.63;;;;;;;;;;5070713;28;20032;-63
2023/12/11 04:49:28;;;;;;;12.27;11.68;;;;;;;;;;5077821;28;20095;-63
2023/12/11 04:51:54;;;;;;;12.38;11.77;;;;;;;;;;5074130;28;20044;-62
2023/12/11 04:54:19;;;;;;;12.05;11.45;;;;;;;;;;5070663;28;20025;-63
2023/12/11 04:56:45;;;;;;;12.73;12.02;;;;;;;;;;5073680;28;20028;-62
2023/12/11 04:59:10;;;;;;;12.27;11.68;;;;;;;;;;5068006;28;20039;-64
2023/12/11 05:01:35;;;;;;;11.50;11.00;;;;;;;;;;5077788;28;20471;-62
2023/12/11 05:04:01;;;;;;;12.48;11.88;;;;;;;;;;5069467;28;20024;-62
2023/12/11 05:06:26;;;;;;;12.02;11.43;;;;;;;;;;5072762;28;20391;-63
2023/12/11 05:08:51;;;;;;;12.30;11.70;;;;;;;;;;5076034;28;20020;-63
2023/12/11 05:11:17;;;;;;;12.48;11.85;;;;;;;;;;5071240;28;20090;-63
2023/12/11 05:13:42;;;;;;;12.35;11.75;;;;;;;;;;5071411;28;20099;-62
2023/12/11 05:16:07;;;;;;;13.10;12.40;;;;;;;;;;5074276;28;20496;-64
2023/12/11 05:18:33;;;;;;;12.77;12.07;;;;;;;;;;5073109;28;20016;-63
2023/12/11 05:21:04;;;;;;;12.23;11.63;;;;;;;;;;5077011;28;20498;-63
2023/12/11 05:23:30;;;;;;;13.32;12.63;;;;;;;;;;5070545;28;20443;-62
2023/12/11 05:25:55;;;;;;;13.10;12.40;;;;;;;;;;5077948;28;20123;-64
2023/12/11 05:28:20;;;;;;;13.40;12.70;;;;;;;;;;5077718;28;20017;-63
2023/12/11 05:30:46;;;;;;;13.02;12.32;;;;;;;;;;5072836;28;20082;-62
2023/12/11 05:33:11;;;;;;;12.73;12.02;;;;;;;;;;5072443;28;20039;-63
2023/12/11 05:35:36;;;;;;;13.50;12.77;;;;;;;;;;5070350;28;20024;-62
2023/12/11 05:38:02;;;;;;;12.45;11.85;;;;;;;;;;5068691;28;20032;-62
2023/12/11 05:40:27;;;;;;;13.63;12.88;;;;;;;;;;5070949;28;20048;-62
2023/12/11 05:42:52;;;;;;;12.15;11.55;;;;;;;;;;5074372;28;20033;-62
2023/12/11 05:45:18;;;;;;;13.30;12.60;;;;;;;;;;5076464;28;20036;-63
2023/12/11 05:47:43;;;;;;;12.88;12.18;;;;;;;;;;5077427;28;20017;-62
2023/12/11 05:50:09;;;;;;;12.40;11.80;;;;;;;;;;5075296;28;20480;-63
2023/12/11 05:52:34;;;;;;;13.55;12.75;;;;;;;;;;5074068;28;20024;-63
2023/12/11 05:54:59;;;;;;;13.05;12.35;;;;;;;;;;5074003;28;20108;-63
2023/12/11 05:57:25;;;;;;;13.10;12.40;;;;;;;;;;5067012;28;20024;-62
2023/12/11 05:59:50;;;;;;;12.77;12.18;;;;;;;;;;5075982;28;20085;-63
2023/12/11 06:02:16;;;;;;;12.85;12.15;;;;;;;;;;5076517;28;20160;-63
2023/12/11 06:04:41;;;;;;;13.95;13.15;;;;;;;;;;5072295;28;20024;-62
2023/12/11 06:07:06;;;;;;;13.55;12.77;;;;;;;;;;5066819;28;20023;-63
2023/12/11 06:09:31;;;;;;;12.30;11.70;;;;;;;;;;5073253;28;20050;-63
2023/12/11 06:11:57;;;;;;;13.15;12.45;;;;;;;;;;5078944;28;20040;-62
2023/12/11 06:14:23;;;;;;;12.63;11.95;;;;;;;;;;5072409;28;20047;-62
2023/12/11 06:16:48;;;;;;;11.88;11.27;;;;;;;;;;5074431;28;20040;-62
2023/12/11 06:19:13;;;;;;;13.25;12.55;;;;;;;;;;5069079;28;20118;-62
2023/12/11 06:21:40;;;;;;;12.05;11.45;;;;;;;;;;5077101;28;20020;-63
2023/12/11 06:24:06;;;;;;;13.02;12.32;;;;;;;;;;5066721;28;20052;-63
2023/12/11 06:26:32;;;;;;;13.13;12.43;;;;;;;;;;5068571;28;20055;-62
2023/12/11 06:28:59;;;;;;;12.10;11.50;;;;;;;;;;5075474;28;20016;-62
2023/12/11 06:31:25;;;;;;;12.65;11.95;;;;;;;;;;5073329;28;20419;-62
2023/12/11 06:33:50;;;;;;;13.00;12.30;;;;;;;;;;5075973;28;20073;-63
2023/12/11 06:36:16;;;;;;;12.50;11.90;;;;;;;;;;5074293;28;20165;-63
2023/12/11 06:38:41;;;;;;;12.18;11.57;;;;;;;;;;5074529;28;20020;-63
2023/12/11 06:41:06;;;;;;;12.18;11.57;;;;;;;;;;5074181;28;20488;-63
2023/12/11 06:43:32;;;;;;;12.05;11.45;;;;;;;;;;5072384;28;20024;-62
2023/12/11 06:45:57;;;;;;;12.32;11.73;;;;;;;;;;5072049;28;20479;-63
2023/12/11 06:48:23;;;;;;;12.00;11.40;;;;;;;;;;5066386;28;20361;-62
2023/12/11 06:50:48;;;;;;;12.20;11.60;;;;;;;;;;5070240;28;20019;-63
2023/12/11 06:53:13;;;;;;;11.52;11.02;;;;;;;;;;5075916;28;20047;-63
2023/12/11 06:55:39;;;;;;;12.07;11.48;;;;;;;;;;5073247;28;20017;-62
2023/12/11 06:58:04;;;;;;;12.50;11.88;;;;;;;;;;5071188;28;20392;-63
2023/12/11 07:00:29;;;;;;;13.88;13.07;;;;;;;;;;5073800;28;20383;-62
2023/12/11 07:02:55;;;;;;;13.43;12.70;;;;;;;;;;5070446;28;20024;-61
2023/12/11 07:05:20;;;;;;;12.90;12.20;;;;;;;;;;5071958;28;20028;-63
2023/12/11 07:07:45;;;;;;;14.35;13.48;;;;;;;;;;5064188;28;20017;-62
2023/12/11 07:10:11;;;;;;;12.02;11.43;;;;;;;;;;5078527;28;20552;-63
2023/12/11 07:12:40;;;;;;;12.90;12.20;;;;;;;;;;5072383;28;20436;-62
2023/12/11 07:15:05;;;;;;;12.05;11.45;;;;;;;;;;5070930;28;20060;-64
2023/12/11 07:17:31;;;;;;;12.25;11.65;;;;;;;;;;5064832;28;20456;-63
2023/12/11 07:19:57;;;;;;;12.25;11.65;;;;;;;;;;5070864;28;20544;-63
2023/12/11 07:22:22;;;;;;;12.32;11.73;;;;;;;;;;5074699;28;20028;-63
2023/12/11 07:24:47;;;;;;;12.70;12.00;;;;;;;;;;5074943;28;20044;-64
2023/12/11 07:27:13;;;;;;;12.38;11.77;;;;;;;;;;5070099;28;20024;-62
2023/12/11 07:29:38;;;;;;;13.25;12.55;;;;;;;;;;5073016;28;20032;-64
2023/12/11 07:32:04;;;;;;;13.98;13.18;;;;;;;;;;5070714;28;20070;-63
2023/12/11 07:34:29;;;;;;;13.48;12.77;;;;;;;;;;5074618;28;20390;-64
2023/12/11 07:36:55;;;;;;;13.05;12.35;;;;;;;;;;5068887;28;20020;-63
2023/12/11 07:39:20;;;;;;;13.32;12.63;;;;;;;;;;5069670;28;20024;-63
2023/12/11 07:41:46;;;;;;;13.05;12.35;;;;;;;;;;5069999;28;20036;-63
2023/12/11 07:44:11;;;;;;;12.75;12.07;;;;;;;;;;5069332;28;20024;-63
2023/12/11 07:46:36;;;;;;;12.82;12.13;;;;;;;;;;5069815;28;20035;-63
2023/12/11 07:49:02;;;;;;;12.18;11.57;;;;;;;;;;5071247;28;20032;-64
2023/12/11 07:51:28;;;;;;;12.98;12.30;;;;;;;;;;5067644;28;20036;-63
2023/12/11 07:53:55;;;;;;;13.10;12.40;;;;;;;;;;5074873;28;20029;-63
2023/12/11 07:56:21;;;;;;;12.48;11.88;;;;;;;;;;5066054;28;20068;-62
2023/12/11 07:58:47;;;;;;;13.18;12.48;;;;;;;;;;5071397;28;20400;-64
2023/12/11 08:01:12;;;;;;;14.45;13.57;;;;;;;;;;5065678;28;20107;-67
2023/12/11 08:03:37;;;;;;;13.98;13.18;;;;;;;;;;5062294;28;20063;-66
2023/12/11 08:06:03;;;;;;;13.20;12.50;;;;;;;;;;5063839;28;20088;-66
2023/12/11 08:08:28;;;;;;;12.68;11.98;;;;;;;;;;5063662;28;20056;-65
2023/12/11 08:10:54;;;;;;;12.73;12.05;;;;;;;;;;5066579;28;20476;-66
2023/12/11 08:13:19;;;;;;;13.50;12.77;;;;;;;;;;5061404;28;20060;-66
2023/12/11 08:15:45;;;;;;;13.10;12.40;;;;;;;;;;5060132;28;20063;-65
2023/12/11 08:18:10;;;;;;;12.68;12.05;;;;;;;;;;5061621;28;20028;-65
2023/12/11 08:20:36;;;;;;;12.80;12.10;;;;;;;;;;5064505;28;20029;-66
2023/12/11 08:23:01;;;;;;;12.75;12.05;;;;;;;;;;5063813;28;20447;-66
2023/12/11 08:25:26;;;;;;;13.25;12.55;;;;;;;;;;5063459;28;20024;-66
2023/12/11 08:27:52;;;;;;;13.05;12.35;;;;;;;;;;5066800;28;20021;-68
2023/12/11 08:30:17;;;;;;;13.18;12.48;;;;;;;;;;5063579;28;20438;-67
2023/12/11 08:32:42;;;;;;;12.73;12.07;;;;;;;;;;5062698;28;20032;-68
2023/12/11 08:35:08;;;;;;;15.50;14.57;;;;;;;;;;5061317;28;20035;-69
2023/12/11 08:37:33;;;;;;;12.57;11.93;;;;;;;;;;5061213;28;20020;-68
2023/12/11 08:39:59;;;;;;;13.07;12.38;;;;;;;;;;5061300;28;20052;-69
2023/12/11 08:42:25;;;;;;;12.75;12.05;;;;;;;;;;5059216;28;20070;-66
2023/12/11 08:44:50;;;;;;;12.38;11.77;;;;;;;;;;5063127;28;20058;-68
2023/12/11 08:47:16;;;;;;;12.45;11.85;;;;;;;;;;5064049;28;20025;-66
2023/12/11 08:49:41;;;;;;;12.25;11.65;;;;;;;;;;5062923;28;20428;-67
2023/12/11 08:52:06;;;;;;;12.38;11.77;;;;;;;;;;5064094;28;20036;-67
2023/12/11 08:54:32;;;;;;;12.90;12.20;;;;;;;;;;5062464;28;20034;-71
2023/12/11 08:56:57;;;;;;;12.00;11.40;;;;;;;;;;5074595;28;20118;-67
2023/12/11 08:59:22;;;;;;;12.48;11.85;;;;;;;;;;5060984;28;20434;-70
2023/12/11 09:01:48;;;;;;;12.07;11.48;;;;;;;;;;5064449;28;20024;-68
2023/12/11 09:04:13;;;;;;;13.15;12.45;;;;;;;;;;5063903;28;20016;-68
2023/12/11 09:06:38;;;;;;;12.68;12.07;;;;;;;;;;5058848;28;20024;-69
2023/12/11 09:09:04;;;;;;;12.60;12.00;;;;;;;;;;5063560;28;20511;-71
2023/12/11 09:11:29;;;;;;;12.65;12.05;;;;;;;;;;5059098;28;20039;-69
2023/12/11 09:13:54;;;;;;;13.00;12.30;;;;;;;;;;5067959;28;20031;-69
2023/12/11 09:16:20;;;;;;;12.20;11.60;;;;;;;;;;5059709;28;20051;-69
2023/12/11 09:18:45;;;;;;;12.65;12.05;;;;;;;;;;5060061;28;20131;-69
2023/12/11 09:21:10;;;;;;;12.80;12.13;;;;;;;;;;5061745;28;20104;-69
2023/12/11 09:23:36;;;;;;;12.80;12.10;;;;;;;;;;5058741;28;20108;-67
2023/12/11 09:26:02;;;;;;;13.05;12.35;;;;;;;;;;5059710;28;20056;-67
2023/12/11 09:28:27;;;;;;;13.25;12.55;;;;;;;;;;5064487;28;20022;-67
2023/12/11 09:30:52;;;;;;;12.70;12.05;;;;;;;;;;5061581;28;20107;-69
2023/12/11 09:33:18;;;;;;;13.05;12.35;;;;;;;;;;5057432;28;20515;-68
2023/12/11 09:35:43;;;;;;;12.50;11.90;;;;;;;;;;5058099;28;20020;-72
2023/12/11 09:38:10;;;;;;;13.32;12.63;;;;;;;;;;5065240;28;20369;-70
2023/12/11 09:40:35;;;;;;;13.13;12.43;;;;;;;;;;5060036;28;20111;-72
2023/12/11 09:43:01;;;;;;;13.95;13.18;;;;;;;;;;5067301;28;20100;-71
2023/12/11 09:45:27;;;;;;;13.27;12.57;;;;;;;;;;5066226;28;20459;-71
2023/12/11 09:47:53;;;;;;;12.80;12.15;;;;;;;;;;5063495;28;20096;-68
2023/12/11 09:50:19;;;;;;;12.55;11.95;;;;;;;;;;5062191;28;20016;-71
2023/12/11 09:52:44;;;;;;;12.35;11.75;;;;;;;;;;5061070;28;20037;-72
2023/12/11 09:55:10;;;;;;;13.05;12.35;;;;;;;;;;5064863;28;20151;-71
2023/12/11 09:57:37;;;;;;;12.60;12.00;;;;;;;;;;5065539;28;20060;-71
2023/12/11 10:00:03;;;;;;;13.05;12.38;;;;;;;;;;5066055;28;20500;-70
2023/12/11 10:02:28;;;;;;;13.30;12.60;;;;;;;;;;5066355;28;20059;-70
2023/12/11 10:05:10;;;;;;;12.77;12.18;;;;;;;;;;5068902;28;20055;-70
2023/12/11 10:07:36;;;;;;;12.60;12.00;;;;;;;;;;5066009;28;20395;-72
2023/12/11 10:10:20;;;;;;;12.80;12.20;;;;;;;;;;5066457;28;20101;-69
2023/12/11 10:12:46;;;;;;;12.87;12.17;;;;;;;;;;5069078;28;20036;-69
2023/12/11 10:15:17;;;;;;;12.95;12.27;;;;;;;;;;5068460;28;20285;-71
2023/12/11 10:17:43;;;;;;;13.13;12.43;;;;;;;;;;5065531;28;20032;-71
2023/12/11 10:20:15;;;;;;;13.10;12.40;;;;;;;;;;5063944;28;20094;-72
2023/12/11 10:22:40;;;;;;;13.18;12.48;;;;;;;;;;5064015;28;20032;-70
2023/12/11 10:25:07;;;;;;;12.38;11.77;;;;;;;;;;5066732;28;20211;-71
2023/12/11 10:27:32;;;;;;;12.95;12.25;;;;;;;;;;5058371;28;20068;-68
2023/12/11 10:30:08;;;;;;;12.88;12.23;;;;;;;;;;5065169;28;20431;-71
2023/12/11 10:32:33;;;;;;;13.00;12.30;;;;;;;;;;5067117;28;20025;-74
2023/12/11 10:34:59;;;;;;;12.98;12.35;;;;;;;;;;5068765;28;20035;-73
2023/12/11 10:37:31;;;;;;;14.25;13.45;;;;;;;;;;5065765;28;20029;-72
2023/12/11 10:39:57;;;;;;;13.40;12.70;;;;;;;;;;5064325;28;20025;-72
2023/12/11 10:42:23;;;;;;;14.18;13.38;;;;;;;;;;5066587;28;20388;-72
2023/12/11 10:44:49;;;;;;;13.63;12.93;;;;;;;;;;5061240;28;20024;-71
2023/12/11 10:47:15;;;;;;;13.48;12.77;;;;;;;;;;5062286;28;20058;-68
2023/12/11 10:49:40;;;;;;;12.80;12.13;;;;;;;;;;5061148;28;20051;-71
2023/12/11 10:52:06;;;;;;;13.45;12.75;;;;;;;;;;5067221;28;20064;-70
2023/12/11 10:54:32;;;;;;;13.05;12.35;;;;;;;;;;5064446;28;20488;-72
2023/12/11 10:56:59;;;;;;;13.52;12.82;;;;;;;;;;5062603;28;20109;-73
2023/12/11 10:59:26;;;;;;;13.60;12.90;;;;;;;;;;5063327;28;20056;-71
2023/12/11 11:01:53;;;;;;;12.50;11.90;;;;;;;;;;5077952;28;20066;-70
2023/12/11 11:04:18;;;;;;;12.57;11.98;;;;;;;;;;5068900;28;20028;-69
2023/12/11 11:06:56;;;;;;;12.45;11.85;;;;;;;;;;5068861;28;20665;-69
2023/12/11 11:09:44;;;;;;;13.45;12.75;;;;;;;;;;5060917;28;20028;-67
2023/12/11 11:12:16;;;;;;;13.40;12.70;;;;;;;;;;5036716;28;20040;-70
2023/12/11 11:14:47;;;;;;;13.15;12.45;;;;;;;;;;5067494;28;20021;-70
2023/12/11 11:17:12;;;;;;;14.50;13.70;;;;;;;;;;5059886;28;20407;-70
2023/12/11 11:19:57;;;;;;;13.05;12.35;;;;;;;;;;5068540;28;20025;-68
2023/12/11 11:22:23;;;;;;;13.05;12.35;;;;;;;;;;5074882;28;20403;-69
2023/12/11 11:24:48;;;;;;;12.80;12.20;;;;;;;;;;5071529;28;20029;-68
2023/12/11 11:27:32;;;;;;;12.75;12.15;;;;;;;;;;5068896;28;20033;-71
2023/12/11 11:29:57;;;;;;;14.05;13.25;;;;;;;;;;5066944;28;20020;-66
2023/12/11 11:32:43;;;;;;;13.00;12.30;;;;;;;;;;5064911;28;20030;-67
2023/12/11 11:35:09;;;;;;;13.68;12.93;;;;;;;;;;5071514;28;20031;-68
2023/12/11 11:37:50;;;;;;;13.20;12.50;;;;;;;;;;5077241;28;20482;-72
2023/12/11 11:40:31;;;;;;;13.18;12.48;;;;;;;;;;5062349;28;20048;-70
2023/12/11 11:42:57;;;;;;;13.52;12.82;;;;;;;;;;5065148;28;20020;-70
2023/12/11 11:45:22;;;;;;;13.50;12.80;;;;;;;;;;5059996;28;20610;-71
2023/12/11 11:47:51;;;;;;;13.13;12.43;;;;;;;;;;5066143;28;20039;-69
2023/12/11 11:50:18;;;;;;;14.07;13.27;;;;;;;;;;5068125;28;20499;-70
2023/12/11 11:52:46;;;;;;;13.13;12.43;;;;;;;;;;5069725;28;20086;-71
2023/12/11 11:55:11;;;;;;;12.93;12.23;;;;;;;;;;5068846;28;20495;-69
2023/12/11 11:57:36;;;;;;;12.48;11.88;;;;;;;;;;5068460;28;20036;-69
2023/12/11 12:00:03;;;;;;;13.57;12.88;;;;;;;;;;5069892;28;20024;-71
2023/12/11 12:02:29;;;;;;;12.77;12.13;;;;;;;;;;5068153;28;20099;-72
2023/12/11 12:04:55;;;;;;;12.85;12.20;;;;;;;;;;5068353;28;20429;-68
2023/12/11 12:07:20;;;;;;;13.40;12.70;;;;;;;;;;5060552;28;20114;-70
2023/12/11 12:09:50;;;;;;;13.20;12.50;;;;;;;;;;5059527;28;20057;-70
2023/12/11 12:12:15;;;;;;;12.50;11.88;;;;;;;;;;5064695;28;20032;-68
2023/12/11 12:14:41;;;;;;;11.80;11.20;;;;;;;;;;5055511;28;20020;-70
2023/12/11 12:17:10;;;;;;;12.73;12.02;;;;;;;;;;5056860;28;20052;-66
2023/12/11 12:19:35;;;;;;;14.18;13.38;;;;;;;;;;5066935;28;20028;-68
2023/12/11 12:22:02;;;;;;;12.93;12.23;;;;;;;;;;5062817;28;20024;-70
2023/12/11 12:24:27;;;;;;;13.13;12.43;;;;;;;;;;5064195;28;20026;-70
2023/12/11 12:27:03;;;;;;;12.40;11.80;;;;;;;;;;5062945;28;20024;-70
2023/12/11 12:29:32;;;;;;;12.60;11.93;;;;;;;;;;5060853;28;20020;-69
2023/12/11 12:31:58;;;;;;;12.82;12.13;;;;;;;;;;5061094;28;20032;-71
2023/12/11 12:34:24;;;;;;;13.80;13.00;;;;;;;;;;5058782;28;20025;-70
2023/12/11 12:36:51;;;;;;;12.40;11.80;;;;;;;;;;5065828;28;20024;-71
2023/12/11 12:39:18;;;;;;;12.50;11.90;;;;;;;;;;5058356;28;20024;-69
2023/12/11 12:41:43;;;;;;;12.10;11.50;;;;;;;;;;5060223;28;20126;-72
2023/12/11 12:44:08;;;;;;;14.27;13.45;;;;;;;;;;5061379;28;20060;-70
2023/12/11 12:46:38;;;;;;;12.95;12.25;;;;;;;;;;5062732;28;20063;-72
2023/12/11 12:49:07;;;;;;;12.05;11.45;;;;;;;;;;5064157;28;20019;-71
2023/12/11 12:51:42;;;;;;;12.00;11.40;;;;;;;;;;5065042;28;20031;-69
2023/12/11 12:54:07;;;;;;;13.15;12.45;;;;;;;;;;5061984;28;20024;-68
2023/12/11 12:56:33;;;;;;;12.70;12.00;;;;;;;;;;5056846;28;20024;-70
2023/12/11 12:59:01;;;;;;;12.45;11.85;;;;;;;;;;5047416;28;20047;-69
2023/12/11 13:01:26;;;;;;;12.77;12.07;;;;;;;;;;5064644;28;20032;-69
2023/12/11 13:03:58;;;;;;;13.35;12.65;;;;;;;;;;5057862;28;20840;-71
2023/12/11 13:06:26;;;;;;;13.35;12.65;;;;;;;;;;5073578;28;20029;-69
2023/12/11 13:08:52;;;;;;;14.35;13.52;;;;;;;;;;5061430;28;20074;-69
2023/12/11 13:11:17;;;;;;;13.15;12.45;;;;;;;;;;5067149;28;20096;-68
2023/12/11 13:13:55;;;;;;;12.98;12.27;;;;;;;;;;5066088;28;20028;-70
2023/12/11 13:16:20;;;;;;;13.70;12.90;;;;;;;;;;5061912;28;20098;-69
2023/12/11 13:18:49;;;;;;;13.13;12.43;;;;;;;;;;5064698;28;20044;-69
2023/12/11 13:21:15;;;;;;;13.40;12.70;;;;;;;;;;5059550;28;20108;-70
2023/12/11 13:23:40;;;;;;;13.35;12.65;;;;;;;;;;5065907;28;20127;-70
2023/12/11 13:26:06;;;;;;;13.07;12.38;;;;;;;;;;5065218;28;20021;-71
2023/12/11 13:28:31;;;;;;;13.32;12.63;;;;;;;;;;5059315;28;20050;-69
2023/12/11 13:30:57;;;;;;;12.98;12.27;;;;;;;;;;5061326;28;20020;-69
2023/12/11 13:33:22;;;;;;;12.77;12.13;;;;;;;;;;5063919;28;20031;-71
2023/12/11 13:35:48;;;;;;;13.15;12.45;;;;;;;;;;5061036;28;20047;-70
2023/12/11 13:38:13;;;;;;;12.25;11.65;;;;;;;;;;5059597;28;21681;-70
2023/12/11 13:40:39;;;;;;;12.80;12.13;;;;;;;;;;5063667;28;20030;-69
2023/12/11 13:43:04;;;;;;;12.32;11.73;;;;;;;;;;5062465;28;20032;-67
2023/12/11 13:45:29;;;;;;;13.23;12.52;;;;;;;;;;5060252;28;20083;-71
2023/12/11 13:47:54;;;;;;;13.32;12.63;;;;;;;;;;5061948;28;20056;-71
2023/12/11 13:50:20;;;;;;;13.30;12.60;;;;;;;;;;5069177;28;20021;-69
2023/12/11 13:52:46;;;;;;;12.77;12.07;;;;;;;;;;5066107;28;20090;-70
2023/12/11 13:55:12;;;;;;;13.15;12.45;;;;;;;;;;5064372;28;20454;-70
2023/12/11 13:57:37;;;;;;;12.93;12.23;;;;;;;;;;5065848;28;20100;-68
2023/12/11 14:00:04;;;;;;;13.05;12.35;;;;;;;;;;5059046;28;20115;-68
2023/12/11 14:02:29;;;;;;;15.32;14.40;;;;;;;;;;5059740;28;20039;-71
2023/12/11 14:04:55;;;;;;;12.77;12.10;;;;;;;;;;5066035;28;20024;-71
2023/12/11 14:07:20;;;;;;;12.88;12.18;;;;;;;;;;5063822;28;20081;-68
2023/12/11 14:09:46;;;;;;;13.45;12.73;;;;;;;;;;5059553;28;20028;-70